Flight Track Log - Related Links

Times and Time Zones

All times are in EDT time to prevent confusion due to time zone crossing. See the SWA2966 flight status page for this flight to view local times or setup timezone preferences in your user account.

Time Position Orientation Groundspeed Altitude Reporting Facility
EDT Latitude Longitude Course Direction KTS MPH feet Rate Location/Type
Tue 03:20:12 PM 37.7333 -122.2500 293° West 157 181 1,500  Level Northern Cal TRACON
Tue 03:21:22 PM 37.7556 -122.3172 293° West 215 247 5,500 3,727 Climbing Oakland Center
Tue 03:22:24 PM 37.7006 -122.3583 211° Southwest 238 274 9,700 3,463 Climbing Oakland Center
Tue 03:23:25 PM 37.6161 -122.3869 195° South 317 365 12,600 3,344 Climbing Oakland Center
Tue 03:24:26 PM 37.5242 -122.3550 165° South 354 407 16,500 3,707 Climbing Oakland Center
Tue 03:25:28 PM 37.4378 -122.2850 147° Southeast 377 434 20,200 3,268 Climbing Oakland Center
Tue 03:26:29 PM 37.3706 -122.1761 128° Southeast 398 458 23,200 2,852 Climbing Oakland Center
Tue 03:27:30 PM 37.2989 -122.0617 128° Southeast 414 476 26,000 2,878 Climbing Oakland Center
Tue 03:28:32 PM 37.2083 -121.9183 128° Southeast 436 502 29,100 2,585 Climbing Oakland Center
Tue 03:29:33 PM 37.1361 -121.8033 128° Southeast 448 516 31,300 2,213 Climbing Oakland Center
Tue 03:30:34 PM 37.0500 -121.6708 129° Southeast 460 529 33,600 2,311 Climbing Oakland Center
Tue 03:31:35 PM 36.9719 -121.5447 128° Southeast 460 529 36,000 2,049 Climbing Oakland Center
Tue 03:32:37 PM 36.8939 -121.4225 129° Southeast 454 522 37,800 1,756 Climbing Oakland Center
Tue 03:33:38 PM 36.8075 -121.2883 129° Southeast 454 522 39,600 1,426 Climbing Oakland Center
Tue 03:34:39 PM 36.7278 -121.1675 129° Southeast 452 520 40,700 634 Climbing Oakland Center
Tue 03:35:41 PM 36.6469 -121.0408 128° Southeast 463 533 40,900 146 Climbing Oakland Center
Tue 03:36:42 PM 36.5669 -120.9164 129° Southeast 462 532 41,000 49 Climbing Oakland Center
Tue 03:37:43 PM 36.4878 -120.7911 128° Southeast 461 531 41,000  Level Oakland Center
Tue 03:38:44 PM 36.4069 -120.6706 130° Southeast 456 525 41,000  Level Oakland Center
Tue 03:39:45 PM 36.3267 -120.5475 129° Southeast 458 527 41,000  Level Oakland Center
Tue 03:40:47 PM 36.2461 -120.4225 129° Southeast 467 537 41,000  Level Oakland Center
Tue 03:41:48 PM 36.1642 -120.3022 130° Southeast 456 525 41,000  Level Oakland Center
Tue 03:42:49 PM 36.0822 -120.1789 129° Southeast 459 528 41,000  Level Oakland Center
Tue 03:43:50 PM 35.9872 -120.0383 130° Southeast 438 504 41,000  Level Oakland Center
Tue 03:44:52 PM 35.9064 -119.9156 129° Southeast 451 519 41,000  Level Oakland Center
Tue 03:45:53 PM 35.8253 -119.7956 130° Southeast 454 522 41,000  Level Oakland Center
Tue 03:46:54 PM 35.7439 -119.6744 130° Southeast 455 524 41,000  Level Oakland Center
Tue 03:47:55 PM 35.6594 -119.5525 130° Southeast 460 529 41,000  Level Oakland Center
Tue 03:48:57 PM 35.5775 -119.4314 130° Southeast 460 529 41,000 -439 Level Oakland Center
Tue 03:49:58 PM 35.4933 -119.3097 130° Southeast 463 533 40,100 -885 Descending Oakland Center
Tue 03:50:59 PM 35.4136 -119.1894 129° Southeast 459 528 39,200 -868 Descending Oakland Center
Tue 03:51:14 PM 35.3978 -119.1650 128° Southeast 459 528 39,000 -857 Descending Los Angeles Center
Tue 03:52:16 PM 35.3178 -119.0472 130° Southeast 453 521 38,100 -1,016 Descending Los Angeles Center
Tue 03:53:18 PM 35.2197 -118.9058 130° Southeast 454 522 36,900 -1,452 Descending Los Angeles Center
Tue 03:54:20 PM 35.1386 -118.7869 130° Southeast 454 522 35,100 -1,968 Descending Los Angeles Center
Tue 03:55:23 PM 35.0564 -118.6703 131° Southeast 453 521 32,800 -2,208 Descending Los Angeles Center
Tue 03:56:25 PM 34.9769 -118.5578 131° Southeast 444 511 30,500 -2,081 Descending Los Angeles Center
Tue 03:57:27 PM 34.8914 -118.4364 131° Southeast 428 493 28,500 -2,129 Descending Los Angeles Center
Tue 03:58:29 PM 34.8206 -118.3328 130° Southeast 411 473 26,100 -2,081 Descending Los Angeles Center
Tue 03:59:31 PM 34.7486 -118.2331 131° Southeast 400 460 24,200 -1,355 Descending Los Angeles Center
Tue 04:00:33 PM 34.6772 -118.1314 130° Southeast 393 452 23,300 -1,161 Descending Los Angeles Center
Tue 04:01:35 PM 34.6033 -118.0367 133° Southeast 395 455 21,800 -1,839 Descending Los Angeles Center
Tue 04:02:37 PM 34.5161 -117.9278 134° Southeast 378 435 19,500 -2,032 Descending Los Angeles Center
Tue 04:03:39 PM 34.4661 -117.8264 121° Southeast 359 413 17,600 -1,887 Descending Los Angeles Center
Tue 04:04:41 PM 34.4289 -117.7189 113° Southeast 350 403 15,600 -1,440 Descending Los Angeles Center
Tue 04:05:44 PM 34.3950 -117.6181 112° Southeast 330 380 14,600 -1,056 Descending Los Angeles Center
Tue 04:06:46 PM 34.3550 -117.5017 113° Southeast 328 377 13,400 -774 Descending Los Angeles Center
Tue 04:07:48 PM 34.3194 -117.4006 113° Southeast 327 376 13,000 -290 Descending Los Angeles Center
Tue 04:08:50 PM 34.2681 -117.3314 132° Southeast 291 335 12,800 -919 Descending Los Angeles Center
Tue 04:09:52 PM 34.2022 -117.3319 180° South 238 274 11,100 -1,839 Descending Los Angeles Center
Tue 04:10:54 PM 34.1403 -117.3458 191° South 227 261 9,000 -2,308 Descending Los Angeles Center
Tue 04:11:23 PM 34.1000 -117.3500 185° South 217 250 7,600 -2,292 Descending Southern California TRACON
Tue 04:12:23 PM 34.0500 -117.3833 209° Southwest 218 251 5,600 -1,900 Descending Southern California TRACON
Tue 04:13:23 PM 34.0500 -117.4333 270° West 187 215 3,800 -1,587 Descending Southern California TRACON
Tue 04:14:24 PM 34.0500 -117.5000 270° West 175 201 2,400 -1,140 Descending Southern California TRACON
Tue 04:15:24 PM 34.0500 -117.5500 270° West 135 155 1,500 -552 Descending Southern California TRACON
Tue 04:17:07 PM 34.0744 -117.6317 290° West 156 180 900 -350 Descending Los Angeles Center
Tue 04:19:00 PM 34.0500 -117.6000 140° Southeast  Level FlightAware Approximate

Login

Don't have an account? Register now (free) for customized features, flight alerts, and more!